sensor_id;sensor_type;location;lat;lon;timestamp;P1;durP1;ratioP1;P2;durP2;ratioP2
39222;SDS011;24936;46.328;11.026;2024-03-23T00:53:48;2.90;;;2.35;;
39222;SDS011;24936;46.328;11.026;2024-03-23T00:56:14;3.13;;;2.50;;
39222;SDS011;24936;46.328;11.026;2024-03-23T00:58:39;3.63;;;2.85;;
39222;SDS011;24936;46.328;11.026;2024-03-23T01:01:05;2.30;;;2.10;;
39222;SDS011;24936;46.328;11.026;2024-03-23T01:03:30;2.78;;;2.50;;
39222;SDS011;24936;46.328;11.026;2024-03-23T01:05:59;3.47;;;2.42;;
39222;SDS011;24936;46.328;11.026;2024-03-23T01:08:25;3.65;;;2.53;;
39222;SDS011;24936;46.328;11.026;2024-03-23T01:10:57;3.05;;;2.65;;
39222;SDS011;24936;46.328;11.026;2024-03-23T01:13:26;5.57;;;3.15;;
39222;SDS011;24936;46.328;11.026;2024-03-23T01:15:52;2.92;;;2.60;;
39222;SDS011;24936;46.328;11.026;2024-03-23T01:18:18;3.05;;;2.50;;
39222;SDS011;24936;46.328;11.026;2024-03-23T01:20:44;3.78;;;2.80;;
39222;SDS011;24936;46.328;11.026;2024-03-23T01:23:10;7.75;;;3.08;;
39222;SDS011;24936;46.328;11.026;2024-03-23T01:25:35;3.90;;;2.72;;
39222;SDS011;24936;46.328;11.026;2024-03-23T01:28:01;3.20;;;2.55;;
39222;SDS011;24936;46.328;11.026;2024-03-23T01:30:26;4.05;;;2.67;;
39222;SDS011;24936;46.328;11.026;2024-03-23T01:32:52;4.03;;;3.13;;
39222;SDS011;24936;46.328;11.026;2024-03-23T01:35:17;4.75;;;2.75;;
39222;SDS011;24936;46.328;11.026;2024-03-23T01:37:42;3.40;;;2.58;;
39222;SDS011;24936;46.328;11.026;2024-03-23T01:40:08;3.92;;;2.80;;
39222;SDS011;24936;46.328;11.026;2024-03-23T01:42:34;4.53;;;3.58;;
39222;SDS011;24936;46.328;11.026;2024-03-23T01:44:59;5.45;;;2.58;;
39222;SDS011;24936;46.328;11.026;2024-03-23T01:47:24;3.22;;;2.38;;
39222;SDS011;24936;46.328;11.026;2024-03-23T01:49:50;4.40;;;2.58;;
39222;SDS011;24936;46.328;11.026;2024-03-23T01:52:16;2.85;;;2.53;;
39222;SDS011;24936;46.328;11.026;2024-03-23T01:54:42;3.75;;;2.45;;
39222;SDS011;24936;46.328;11.026;2024-03-23T01:57:09;3.50;;;2.80;;
39222;SDS011;24936;46.328;11.026;2024-03-23T01:59:35;2.95;;;2.58;;
39222;SDS011;24936;46.328;11.026;2024-03-23T02:02:01;5.38;;;3.03;;
39222;SDS011;24936;46.328;11.026;2024-03-23T02:04:26;3.97;;;3.13;;
39222;SDS011;24936;46.328;11.026;2024-03-23T02:06:51;3.72;;;2.95;;
39222;SDS011;24936;46.328;11.026;2024-03-23T02:09:17;4.30;;;3.33;;
39222;SDS011;24936;46.328;11.026;2024-03-23T02:11:42;6.25;;;2.67;;
39222;SDS011;24936;46.328;11.026;2024-03-23T02:14:08;4.05;;;2.90;;
39222;SDS011;24936;46.328;11.026;2024-03-23T02:16:33;3.70;;;3.20;;
39222;SDS011;24936;46.328;11.026;2024-03-23T02:18:58;4.63;;;3.05;;
39222;SDS011;24936;46.328;11.026;2024-03-23T02:21:24;2.75;;;2.33;;
39222;SDS011;24936;46.328;11.026;2024-03-23T02:23:49;5.78;;;3.22;;
39222;SDS011;24936;46.328;11.026;2024-03-23T02:26:14;3.15;;;2.75;;
39222;SDS011;24936;46.328;11.026;2024-03-23T02:28:40;4.55;;;3.30;;
39222;SDS011;24936;46.328;11.026;2024-03-23T02:31:06;4.35;;;2.90;;
39222;SDS011;24936;46.328;11.026;2024-03-23T02:33:31;4.55;;;2.80;;
39222;SDS011;24936;46.328;11.026;2024-03-23T02:35:57;6.70;;;2.97;;
39222;SDS011;24936;46.328;11.026;2024-03-23T02:38:23;4.22;;;2.97;;
39222;SDS011;24936;46.328;11.026;2024-03-23T02:40:49;6.40;;;3.25;;
39222;SDS011;24936;46.328;11.026;2024-03-23T02:43:14;6.10;;;3.47;;
39222;SDS011;24936;46.328;11.026;2024-03-23T02:45:40;8.02;;;2.72;;
39222;SDS011;24936;46.328;11.026;2024-03-23T02:48:05;3.65;;;2.78;;
39222;SDS011;24936;46.328;11.026;2024-03-23T02:50:31;2.67;;;2.45;;
39222;SDS011;24936;46.328;11.026;2024-03-23T02:52:56;5.82;;;3.70;;
39222;SDS011;24936;46.328;11.026;2024-03-23T02:55:21;5.47;;;3.78;;
39222;SDS011;24936;46.328;11.026;2024-03-23T02:57:47;4.75;;;3.13;;
39222;SDS011;24936;46.328;11.026;2024-03-23T03:00:12;3.50;;;3.05;;
39222;SDS011;24936;46.328;11.026;2024-03-23T03:02:38;5.22;;;3.47;;
39222;SDS011;24936;46.328;11.026;2024-03-23T03:05:04;5.38;;;4.03;;
39222;SDS011;24936;46.328;11.026;2024-03-23T03:07:30;4.32;;;3.33;;
39222;SDS011;24936;46.328;11.026;2024-03-23T03:09:56;4.30;;;3.17;;
39222;SDS011;24936;46.328;11.026;2024-03-23T03:12:22;2.72;;;2.42;;
39222;SDS011;24936;46.328;11.026;2024-03-23T03:14:47;4.25;;;2.72;;
39222;SDS011;24936;46.328;11.026;2024-03-23T03:17:13;5.55;;;3.00;;
39222;SDS011;24936;46.328;11.026;2024-03-23T03:19:39;6.78;;;3.28;;
39222;SDS011;24936;46.328;11.026;2024-03-23T03:22:05;3.53;;;2.92;;
39222;SDS011;24936;46.328;11.026;2024-03-23T03:24:30;3.15;;;2.63;;
39222;SDS011;24936;46.328;11.026;2024-03-23T03:26:56;6.22;;;2.63;;
39222;SDS011;24936;46.328;11.026;2024-03-23T03:29:22;3.67;;;2.35;;
39222;SDS011;24936;46.328;11.026;2024-03-23T03:31:47;11.23;;;3.88;;
39222;SDS011;24936;46.328;11.026;2024-03-23T03:34:15;3.05;;;2.75;;
39222;SDS011;24936;46.328;11.026;2024-03-23T03:36:40;3.38;;;2.88;;
39222;SDS011;24936;46.328;11.026;2024-03-23T03:39:06;7.35;;;3.17;;
39222;SDS011;24936;46.328;11.026;2024-03-23T03:41:32;3.40;;;3.03;;
39222;SDS011;24936;46.328;11.026;2024-03-23T03:43:57;3.55;;;2.97;;
39222;SDS011;24936;46.328;11.026;2024-03-23T03:46:27;2.93;;;2.60;;
39222;SDS011;24936;46.328;11.026;2024-03-23T03:48:53;4.97;;;3.03;;
39222;SDS011;24936;46.328;11.026;2024-03-23T03:51:19;3.33;;;2.97;;
39222;SDS011;24936;46.328;11.026;2024-03-23T03:53:45;3.53;;;2.78;;
39222;SDS011;24936;46.328;11.026;2024-03-23T03:56:10;5.43;;;3.42;;
39222;SDS011;24936;46.328;11.026;2024-03-23T03:58:35;4.35;;;3.88;;
39222;SDS011;24936;46.328;11.026;2024-03-23T04:01:01;5.22;;;3.78;;
39222;SDS011;24936;46.328;11.026;2024-03-23T04:03:26;3.58;;;2.90;;
39222;SDS011;24936;46.328;11.026;2024-03-23T04:05:55;4.97;;;3.58;;
39222;SDS011;24936;46.328;11.026;2024-03-23T04:08:20;4.05;;;3.25;;
39222;SDS011;24936;46.328;11.026;2024-03-23T04:10:46;3.42;;;3.13;;
39222;SDS011;24936;46.328;11.026;2024-03-23T04:13:12;5.13;;;3.72;;
39222;SDS011;24936;46.328;11.026;2024-03-23T04:15:38;3.58;;;3.20;;
39222;SDS011;24936;46.328;11.026;2024-03-23T04:18:04;3.67;;;3.17;;
39222;SDS011;24936;46.328;11.026;2024-03-23T04:20:30;4.45;;;3.33;;
39222;SDS011;24936;46.328;11.026;2024-03-23T04:22:55;3.50;;;3.10;;
39222;SDS011;24936;46.328;11.026;2024-03-23T04:25:20;4.63;;;3.50;;
39222;SDS011;24936;46.328;11.026;2024-03-23T04:27:46;4.30;;;3.38;;
39222;SDS011;24936;46.328;11.026;2024-03-23T04:30:11;3.92;;;3.53;;
39222;SDS011;24936;46.328;11.026;2024-03-23T04:32:37;3.20;;;2.90;;
39222;SDS011;24936;46.328;11.026;2024-03-23T04:35:03;4.82;;;3.97;;
39222;SDS011;24936;46.328;11.026;2024-03-23T04:37:34;5.35;;;2.63;;
39222;SDS011;24936;46.328;11.026;2024-03-23T04:40:03;3.40;;;3.10;;
39222;SDS011;24936;46.328;11.026;2024-03-23T04:42:29;3.17;;;2.90;;
39222;SDS011;24936;46.328;11.026;2024-03-23T04:44:55;2.53;;;2.33;;
39222;SDS011;24936;46.328;11.026;2024-03-23T04:47:21;3.20;;;2.70;;
39222;SDS011;24936;46.328;11.026;2024-03-23T04:49:46;2.72;;;2.38;;
39222;SDS011;24936;46.328;11.026;2024-03-23T04:52:12;4.85;;;2.92;;
39222;SDS011;24936;46.328;11.026;2024-03-23T04:54:37;4.72;;;2.63;;
39222;SDS011;24936;46.328;11.026;2024-03-23T04:57:03;2.90;;;2.55;;
39222;SDS011;24936;46.328;11.026;2024-03-23T04:59:28;4.28;;;2.20;;
39222;SDS011;24936;46.328;11.026;2024-03-23T05:01:53;4.82;;;2.78;;
39222;SDS011;24936;46.328;11.026;2024-03-23T05:04:19;3.28;;;2.97;;
39222;SDS011;24936;46.328;11.026;2024-03-23T05:06:44;6.32;;;3.20;;
39222;SDS011;24936;46.328;11.026;2024-03-23T05:09:10;4.63;;;3.40;;
39222;SDS011;24936;46.328;11.026;2024-03-23T05:11:38;6.25;;;3.38;;
39222;SDS011;24936;46.328;11.026;2024-03-23T05:14:03;4.65;;;3.63;;
39222;SDS011;24936;46.328;11.026;2024-03-23T05:16:29;5.80;;;3.88;;
39222;SDS011;24936;46.328;11.026;2024-03-23T05:18:54;4.88;;;4.03;;
39222;SDS011;24936;46.328;11.026;2024-03-23T05:21:20;4.30;;;3.28;;
39222;SDS011;24936;46.328;11.026;2024-03-23T05:23:45;7.47;;;4.15;;
39222;SDS011;24936;46.328;11.026;2024-03-23T05:26:11;5.32;;;3.60;;
39222;SDS011;24936;46.328;11.026;2024-03-23T05:28:36;5.00;;;4.13;;
39222;SDS011;24936;46.328;11.026;2024-03-23T05:31:01;4.70;;;3.92;;
39222;SDS011;24936;46.328;11.026;2024-03-23T05:33:27;9.57;;;4.05;;
39222;SDS011;24936;46.328;11.026;2024-03-23T05:35:56;7.75;;;3.30;;
39222;SDS011;24936;46.328;11.026;2024-03-23T05:38:22;3.78;;;3.25;;
39222;SDS011;24936;46.328;11.026;2024-03-23T05:40:57;5.15;;;4.45;;
39222;SDS011;24936;46.328;11.026;2024-03-23T05:43:24;5.72;;;3.88;;
39222;SDS011;24936;46.328;11.026;2024-03-23T05:45:56;6.18;;;3.88;;
39222;SDS011;24936;46.328;11.026;2024-03-23T05:48:23;4.00;;;3.60;;
39222;SDS011;24936;46.328;11.026;2024-03-23T05:50:50;6.88;;;4.10;;
39222;SDS011;24936;46.328;11.026;2024-03-23T05:53:15;5.95;;;4.38;;
39222;SDS011;24936;46.328;11.026;2024-03-23T05:55:42;5.10;;;4.20;;
39222;SDS011;24936;46.328;11.026;2024-03-23T05:58:07;7.25;;;4.57;;
39222;SDS011;24936;46.328;11.026;2024-03-23T06:00:33;13.68;;;5.10;;
39222;SDS011;24936;46.328;11.026;2024-03-23T06:02:58;5.53;;;4.53;;
39222;SDS011;24936;46.328;11.026;2024-03-23T06:05:23;9.27;;;6.20;;
39222;SDS011;24936;46.328;11.026;2024-03-23T06:07:49;11.88;;;6.70;;
39222;SDS011;24936;46.328;11.026;2024-03-23T06:10:15;16.20;;;7.13;;
39222;SDS011;24936;46.328;11.026;2024-03-23T06:12:41;13.85;;;6.63;;
39222;SDS011;24936;46.328;11.026;2024-03-23T06:15:06;9.68;;;6.03;;
39222;SDS011;24936;46.328;11.026;2024-03-23T06:17:35;7.20;;;5.00;;
39222;SDS011;24936;46.328;11.026;2024-03-23T06:20:04;4.95;;;4.38;;
39222;SDS011;24936;46.328;11.026;2024-03-23T06:22:33;4.72;;;4.18;;
39222;SDS011;24936;46.328;11.026;2024-03-23T06:24:58;7.93;;;4.20;;
39222;SDS011;24936;46.328;11.026;2024-03-23T06:27:24;9.57;;;4.07;;
39222;SDS011;24936;46.328;11.026;2024-03-23T06:29:49;6.53;;;3.83;;
39222;SDS011;24936;46.328;11.026;2024-03-23T06:32:15;17.48;;;8.40;;
39222;SDS011;24936;46.328;11.026;2024-03-23T06:34:43;20.63;;;8.60;;
39222;SDS011;24936;46.328;11.026;2024-03-23T06:37:09;11.25;;;4.43;;
39222;SDS011;24936;46.328;11.026;2024-03-23T06:39:38;5.88;;;4.47;;
39222;SDS011;24936;46.328;11.026;2024-03-23T06:42:04;4.80;;;4.38;;
39222;SDS011;24936;46.328;11.026;2024-03-23T06:44:30;5.97;;;4.68;;
39222;SDS011;24936;46.328;11.026;2024-03-23T06:46:57;6.88;;;3.47;;
39222;SDS011;24936;46.328;11.026;2024-03-23T06:49:23;3.45;;;2.97;;
39222;SDS011;24936;46.328;11.026;2024-03-23T06:51:49;4.03;;;3.28;;
39222;SDS011;24936;46.328;11.026;2024-03-23T06:54:15;3.70;;;3.00;;
39222;SDS011;24936;46.328;11.026;2024-03-23T06:56:42;5.03;;;3.35;;
39222;SDS011;24936;46.328;11.026;2024-03-23T06:59:08;4.13;;;3.42;;
39222;SDS011;24936;46.328;11.026;2024-03-23T07:01:34;4.15;;;3.75;;
39222;SDS011;24936;46.328;11.026;2024-03-23T07:04:00;5.82;;;3.60;;
39222;SDS011;24936;46.328;11.026;2024-03-23T07:06:25;4.75;;;3.72;;
39222;SDS011;24936;46.328;11.026;2024-03-23T07:08:52;7.53;;;4.40;;
39222;SDS011;24936;46.328;11.026;2024-03-23T07:11:21;5.35;;;3.75;;
39222;SDS011;24936;46.328;11.026;2024-03-23T07:13:49;6.93;;;3.53;;
39222;SDS011;24936;46.328;11.026;2024-03-23T07:16:15;6.32;;;3.88;;
39222;SDS011;24936;46.328;11.026;2024-03-23T07:18:50;3.38;;;3.08;;
39222;SDS011;24936;46.328;11.026;2024-03-23T07:21:15;3.03;;;2.72;;
39222;SDS011;24936;46.328;11.026;2024-03-23T07:23:44;5.35;;;3.30;;
39222;SDS011;24936;46.328;11.026;2024-03-23T07:26:12;4.95;;;3.63;;
39222;SDS011;24936;46.328;11.026;2024-03-23T07:28:38;7.97;;;5.65;;
39222;SDS011;24936;46.328;11.026;2024-03-23T07:31:08;5.30;;;4.22;;
39222;SDS011;24936;46.328;11.026;2024-03-23T07:33:41;7.25;;;5.95;;
39222;SDS011;24936;46.328;11.026;2024-03-23T07:36:08;7.85;;;5.30;;
39222;SDS011;24936;46.328;11.026;2024-03-23T07:38:34;6.30;;;4.72;;
39222;SDS011;24936;46.328;11.026;2024-03-23T07:41:06;3.50;;;3.20;;
39222;SDS011;24936;46.328;11.026;2024-03-23T07:43:32;6.63;;;4.15;;
39222;SDS011;24936;46.328;11.026;2024-03-23T07:45:57;5.28;;;4.22;;
39222;SDS011;24936;46.328;11.026;2024-03-23T07:48:23;5.97;;;3.85;;
39222;SDS011;24936;46.328;11.026;2024-03-23T07:50:59;8.35;;;4.22;;
39222;SDS011;24936;46.328;11.026;2024-03-23T07:53:32;6.50;;;5.40;;
39222;SDS011;24936;46.328;11.026;2024-03-23T07:55:59;5.43;;;3.72;;
39222;SDS011;24936;46.328;11.026;2024-03-23T07:58:26;7.97;;;6.97;;
39222;SDS011;24936;46.328;11.026;2024-03-23T08:00:53;6.43;;;4.70;;
39222;SDS011;24936;46.328;11.026;2024-03-23T08:03:18;11.20;;;5.53;;
39222;SDS011;24936;46.328;11.026;2024-03-23T08:05:44;12.82;;;6.47;;
39222;SDS011;24936;46.328;11.026;2024-03-23T08:08:09;9.38;;;5.50;;
39222;SDS011;24936;46.328;11.026;2024-03-23T08:10:36;11.50;;;8.55;;
39222;SDS011;24936;46.328;11.026;2024-03-23T08:13:02;11.38;;;4.85;;
39222;SDS011;24936;46.328;11.026;2024-03-23T08:15:29;7.53;;;4.03;;
39222;SDS011;24936;46.328;11.026;2024-03-23T08:20:23;8.57;;;4.60;;
39222;SDS011;24936;46.328;11.026;2024-03-23T08:22:48;7.45;;;5.32;;
39222;SDS011;24936;46.328;11.026;2024-03-23T08:25:14;14.38;;;5.57;;
39222;SDS011;24936;46.328;11.026;2024-03-23T08:27:39;64.25;;;10.60;;
39222;SDS011;24936;46.328;11.026;2024-03-23T08:30:04;11.95;;;5.25;;
39222;SDS011;24936;46.328;11.026;2024-03-23T08:32:30;5.40;;;4.22;;
39222;SDS011;24936;46.328;11.026;2024-03-23T08:34:56;8.73;;;4.95;;
39222;SDS011;24936;46.328;11.026;2024-03-23T08:37:21;18.98;;;6.82;;
39222;SDS011;24936;46.328;11.026;2024-03-23T08:39:46;10.93;;;4.95;;
39222;SDS011;24936;46.328;11.026;2024-03-23T08:42:12;20.25;;;9.98;;
39222;SDS011;24936;46.328;11.026;2024-03-23T08:44:37;20.52;;;10.65;;
39222;SDS011;24936;46.328;11.026;2024-03-23T08:47:03;7.38;;;5.13;;
39222;SDS011;24936;46.328;11.026;2024-03-23T08:49:28;5.97;;;3.15;;
39222;SDS011;24936;46.328;11.026;2024-03-23T08:51:53;4.95;;;3.63;;
39222;SDS011;24936;46.328;11.026;2024-03-23T08:54:19;6.35;;;4.45;;
39222;SDS011;24936;46.328;11.026;2024-03-23T08:56:45;5.10;;;3.88;;
39222;SDS011;24936;46.328;11.026;2024-03-23T08:59:11;3.80;;;3.35;;
39222;SDS011;24936;46.328;11.026;2024-03-23T09:01:36;10.73;;;4.28;;
39222;SDS011;24936;46.328;11.026;2024-03-23T09:04:03;5.15;;;4.63;;
39222;SDS011;24936;46.328;11.026;2024-03-23T09:06:29;12.55;;;4.75;;
39222;SDS011;24936;46.328;11.026;2024-03-23T09:08:54;6.05;;;4.18;;
39222;SDS011;24936;46.328;11.026;2024-03-23T09:11:20;4.03;;;3.63;;
39222;SDS011;24936;46.328;11.026;2024-03-23T09:13:45;5.18;;;4.07;;
39222;SDS011;24936;46.328;11.026;2024-03-23T09:16:10;8.38;;;4.78;;
39222;SDS011;24936;46.328;11.026;2024-03-23T09:18:36;5.53;;;4.00;;
39222;SDS011;24936;46.328;11.026;2024-03-23T09:21:11;6.25;;;4.35;;
39222;SDS011;24936;46.328;11.026;2024-03-23T09:23:42;5.93;;;4.57;;
39222;SDS011;24936;46.328;11.026;2024-03-23T09:26:08;6.82;;;4.55;;
39222;SDS011;24936;46.328;11.026;2024-03-23T09:28:34;6.65;;;4.57;;
39222;SDS011;24936;46.328;11.026;2024-03-23T09:31:05;6.15;;;4.95;;
39222;SDS011;24936;46.328;11.026;2024-03-23T09:33:32;6.25;;;5.40;;
39222;SDS011;24936;46.328;11.026;2024-03-23T09:36:02;7.50;;;5.15;;
39222;SDS011;24936;46.328;11.026;2024-03-23T09:38:31;5.80;;;4.95;;
39222;SDS011;24936;46.328;11.026;2024-03-23T09:40:57;8.20;;;5.45;;
39222;SDS011;24936;46.328;11.026;2024-03-23T09:43:23;7.00;;;5.18;;
39222;SDS011;24936;46.328;11.026;2024-03-23T09:45:48;5.88;;;5.10;;
39222;SDS011;24936;46.328;11.026;2024-03-23T09:48:14;12.55;;;6.20;;
39222;SDS011;24936;46.328;11.026;2024-03-23T09:50:41;6.35;;;5.53;;
39222;SDS011;24936;46.328;11.026;2024-03-23T09:53:07;6.95;;;5.70;;
39222;SDS011;24936;46.328;11.026;2024-03-23T09:55:34;8.23;;;5.40;;
39222;SDS011;24936;46.328;11.026;2024-03-23T09:58:02;7.22;;;5.25;;
39222;SDS011;24936;46.328;11.026;2024-03-23T10:00:30;10.15;;;6.00;;
39222;SDS011;24936;46.328;11.026;2024-03-23T10:02:56;13.65;;;7.40;;
39222;SDS011;24936;46.328;11.026;2024-03-23T10:05:26;8.25;;;6.35;;
39222;SDS011;24936;46.328;11.026;2024-03-23T10:07:52;14.20;;;6.10;;
39222;SDS011;24936;46.328;11.026;2024-03-23T10:10:18;9.82;;;7.22;;
39222;SDS011;24936;46.328;11.026;2024-03-23T10:12:45;7.60;;;6.43;;
39222;SDS011;24936;46.328;11.026;2024-03-23T10:15:22;7.57;;;6.60;;
39222;SDS011;24936;46.328;11.026;2024-03-23T10:17:49;17.58;;;9.38;;
39222;SDS011;24936;46.328;11.026;2024-03-23T10:20:19;7.55;;;6.13;;
39222;SDS011;24936;46.328;11.026;2024-03-23T10:22:47;13.00;;;8.75;;
39222;SDS011;24936;46.328;11.026;2024-03-23T10:25:13;10.88;;;7.82;;
39222;SDS011;24936;46.328;11.026;2024-03-23T10:27:39;8.45;;;7.50;;
39222;SDS011;24936;46.328;11.026;2024-03-23T10:30:10;10.57;;;7.38;;
39222;SDS011;24936;46.328;11.026;2024-03-23T10:32:40;15.48;;;8.10;;
39222;SDS011;24936;46.328;11.026;2024-03-23T10:35:18;9.98;;;7.70;;
39222;SDS011;24936;46.328;11.026;2024-03-23T10:37:47;10.15;;;7.70;;
39222;SDS011;24936;46.328;11.026;2024-03-23T10:40:14;13.60;;;8.55;;
39222;SDS011;24936;46.328;11.026;2024-03-23T10:42:40;27.27;;;9.27;;
39222;SDS011;24936;46.328;11.026;2024-03-23T10:45:06;10.27;;;9.15;;
39222;SDS011;24936;46.328;11.026;2024-03-23T10:47:36;12.88;;;8.25;;
39222;SDS011;24936;46.328;11.026;2024-03-23T10:50:05;9.98;;;8.45;;
39222;SDS011;24936;46.328;11.026;2024-03-23T10:52:32;20.05;;;9.98;;
39222;SDS011;24936;46.328;11.026;2024-03-23T10:54:58;10.05;;;8.30;;
39222;SDS011;24936;46.328;11.026;2024-03-23T10:57:41;13.60;;;9.70;;
39222;SDS011;24936;46.328;11.026;2024-03-23T11:00:09;11.82;;;8.02;;
39222;SDS011;24936;46.328;11.026;2024-03-23T11:02:36;44.90;;;17.10;;
39222;SDS011;24936;46.328;11.026;2024-03-23T11:05:01;9.27;;;7.70;;
39222;SDS011;24936;46.328;11.026;2024-03-23T11:09:54;58.78;;;19.25;;
39222;SDS011;24936;46.328;11.026;2024-03-23T11:14:45;9.82;;;8.60;;
39222;SDS011;24936;46.328;11.026;2024-03-23T11:17:10;14.55;;;7.70;;
39222;SDS011;24936;46.328;11.026;2024-03-23T11:19:36;8.93;;;7.57;;
39222;SDS011;24936;46.328;11.026;2024-03-23T11:22:02;14.82;;;8.02;;
39222;SDS011;24936;46.328;11.026;2024-03-23T11:24:28;8.68;;;7.75;;
39222;SDS011;24936;46.328;11.026;2024-03-23T11:26:54;8.55;;;7.53;;
39222;SDS011;24936;46.328;11.026;2024-03-23T11:29:19;9.23;;;7.72;;
39222;SDS011;24936;46.328;11.026;2024-03-23T11:31:48;8.88;;;7.90;;
39222;SDS011;24936;46.328;11.026;2024-03-23T11:34:17;10.15;;;7.10;;
39222;SDS011;24936;46.328;11.026;2024-03-23T11:36:46;12.45;;;8.40;;
39222;SDS011;24936;46.328;11.026;2024-03-23T11:39:19;8.23;;;6.93;;
39222;SDS011;24936;46.328;11.026;2024-03-23T11:41:48;8.57;;;7.38;;
39222;SDS011;24936;46.328;11.026;2024-03-23T11:44:21;9.93;;;8.07;;
39222;SDS011;24936;46.328;11.026;2024-03-23T11:46:52;10.63;;;9.10;;
39222;SDS011;24936;46.328;11.026;2024-03-23T11:49:25;10.93;;;8.15;;
39222;SDS011;24936;46.328;11.026;2024-03-23T11:51:52;12.73;;;8.45;;
39222;SDS011;24936;46.328;11.026;2024-03-23T11:54:24;12.80;;;8.13;;
39222;SDS011;24936;46.328;11.026;2024-03-23T11:56:54;9.85;;;6.97;;
39222;SDS011;24936;46.328;11.026;2024-03-23T11:59:34;10.50;;;6.85;;
39222;SDS011;24936;46.328;11.026;2024-03-23T12:01:59;9.70;;;8.05;;
39222;SDS011;24936;46.328;11.026;2024-03-23T12:04:26;10.63;;;7.43;;
39222;SDS011;24936;46.328;11.026;2024-03-23T12:09:35;10.63;;;8.02;;
39222;SDS011;24936;46.328;11.026;2024-03-23T12:12:12;12.40;;;8.98;;
39222;SDS011;24936;46.328;11.026;2024-03-23T12:14:40;15.93;;;8.40;;
39222;SDS011;24936;46.328;11.026;2024-03-23T12:17:10;6.90;;;6.10;;
39222;SDS011;24936;46.328;11.026;2024-03-23T12:19:36;14.98;;;7.93;;
39222;SDS011;24936;46.328;11.026;2024-03-23T12:22:03;8.60;;;6.70;;
39222;SDS011;24936;46.328;11.026;2024-03-23T12:24:32;15.38;;;10.07;;
39222;SDS011;24936;46.328;11.026;2024-03-23T12:27:04;15.15;;;10.10;;
39222;SDS011;24936;46.328;11.026;2024-03-23T12:29:30;10.03;;;6.90;;
39222;SDS011;24936;46.328;11.026;2024-03-23T12:32:01;12.38;;;7.82;;
39222;SDS011;24936;46.328;11.026;2024-03-23T12:34:28;9.15;;;7.32;;
39222;SDS011;24936;46.328;11.026;2024-03-23T12:36:55;9.52;;;7.75;;
39222;SDS011;24936;46.328;11.026;2024-03-23T12:39:21;10.23;;;7.93;;
39222;SDS011;24936;46.328;11.026;2024-03-23T12:41:46;9.93;;;6.53;;
39222;SDS011;24936;46.328;11.026;2024-03-23T12:44:13;23.40;;;7.00;;
39222;SDS011;24936;46.328;11.026;2024-03-23T12:46:39;10.50;;;7.53;;
39222;SDS011;24936;46.328;11.026;2024-03-23T12:49:05;17.52;;;7.53;;
39222;SDS011;24936;46.328;11.026;2024-03-23T12:51:31;8.60;;;6.43;;
39222;SDS011;24936;46.328;11.026;2024-03-23T12:53:57;10.13;;;7.93;;
39222;SDS011;24936;46.328;11.026;2024-03-23T12:56:22;10.07;;;7.88;;
39222;SDS011;24936;46.328;11.026;2024-03-23T12:58:47;17.27;;;7.32;;
39222;SDS011;24936;46.328;11.026;2024-03-23T13:01:16;13.18;;;7.80;;
39222;SDS011;24936;46.328;11.026;2024-03-23T13:03:42;13.82;;;7.40;;
39222;SDS011;24936;46.328;11.026;2024-03-23T13:06:09;9.15;;;7.50;;
39222;SDS011;24936;46.328;11.026;2024-03-23T13:08:35;9.18;;;7.90;;
39222;SDS011;24936;46.328;11.026;2024-03-23T13:11:00;11.73;;;6.68;;
39222;SDS011;24936;46.328;11.026;2024-03-23T13:13:25;8.60;;;7.13;;
39222;SDS011;24936;46.328;11.026;2024-03-23T13:15:51;10.02;;;8.32;;
39222;SDS011;24936;46.328;11.026;2024-03-23T13:18:16;10.63;;;7.50;;
39222;SDS011;24936;46.328;11.026;2024-03-23T13:20:42;11.65;;;8.23;;
39222;SDS011;24936;46.328;11.026;2024-03-23T13:23:07;20.77;;;8.57;;
39222;SDS011;24936;46.328;11.026;2024-03-23T13:25:33;10.43;;;7.28;;
39222;SDS011;24936;46.328;11.026;2024-03-23T13:27:59;9.85;;;7.35;;
39222;SDS011;24936;46.328;11.026;2024-03-23T13:30:24;13.15;;;7.68;;
39222;SDS011;24936;46.328;11.026;2024-03-23T13:32:50;9.40;;;7.95;;
39222;SDS011;24936;46.328;11.026;2024-03-23T13:35:15;12.27;;;8.30;;
39222;SDS011;24936;46.328;11.026;2024-03-23T13:37:41;14.20;;;8.48;;
39222;SDS011;24936;46.328;11.026;2024-03-23T13:40:07;10.93;;;8.43;;
39222;SDS011;24936;46.328;11.026;2024-03-23T13:42:33;9.98;;;8.60;;
39222;SDS011;24936;46.328;11.026;2024-03-23T13:44:58;18.50;;;8.55;;
39222;SDS011;24936;46.328;11.026;2024-03-23T13:47:23;15.68;;;9.25;;
39222;SDS011;24936;46.328;11.026;2024-03-23T13:49:49;13.02;;;8.00;;
39222;SDS011;24936;46.328;11.026;2024-03-23T13:52:14;12.05;;;8.07;;
39222;SDS011;24936;46.328;11.026;2024-03-23T13:54:40;12.10;;;8.95;;
39222;SDS011;24936;46.328;11.026;2024-03-23T13:57:10;9.68;;;7.85;;
39222;SDS011;24936;46.328;11.026;2024-03-23T13:59:35;12.43;;;9.02;;
39222;SDS011;24936;46.328;11.026;2024-03-23T14:02:01;28.92;;;14.13;;
39222;SDS011;24936;46.328;11.026;2024-03-23T14:04:26;9.82;;;8.43;;
39222;SDS011;24936;46.328;11.026;2024-03-23T14:06:52;10.43;;;7.53;;
39222;SDS011;24936;46.328;11.026;2024-03-23T14:09:17;14.60;;;9.88;;
39222;SDS011;24936;46.328;11.026;2024-03-23T14:11:47;14.32;;;7.80;;
39222;SDS011;24936;46.328;11.026;2024-03-23T14:14:13;16.05;;;9.23;;
39222;SDS011;24936;46.328;11.026;2024-03-23T14:16:41;10.23;;;8.88;;
39222;SDS011;24936;46.328;11.026;2024-03-23T14:19:07;18.92;;;11.55;;
39222;SDS011;24936;46.328;11.026;2024-03-23T14:21:32;13.02;;;8.32;;
39222;SDS011;24936;46.328;11.026;2024-03-23T14:23:59;6.40;;;3.17;;
39222;SDS011;24936;46.328;11.026;2024-03-23T14:26:26;5.38;;;1.65;;
39222;SDS011;24936;46.328;11.026;2024-03-23T14:28:51;2.05;;;1.77;;
39222;SDS011;24936;46.328;11.026;2024-03-23T14:31:17;2.97;;;1.67;;
39222;SDS011;24936;46.328;11.026;2024-03-23T14:33:42;0.90;;;0.90;;
39222;SDS011;24936;46.328;11.026;2024-03-23T14:36:16;1.48;;;1.25;;
39222;SDS011;24936;46.328;11.026;2024-03-23T14:38:42;3.22;;;3.00;;
39222;SDS011;24936;46.328;11.026;2024-03-23T14:41:12;1.25;;;0.85;;
39222;SDS011;24936;46.328;11.026;2024-03-23T14:43:37;1.00;;;0.90;;
39222;SDS011;24936;46.328;11.026;2024-03-23T14:46:09;1.80;;;1.10;;
39222;SDS011;24936;46.328;11.026;2024-03-23T14:48:36;2.65;;;2.08;;
39222;SDS011;24936;46.328;11.026;2024-03-23T14:51:02;0.93;;;0.82;;
39222;SDS011;24936;46.328;11.026;2024-03-23T14:53:38;1.10;;;1.00;;
39222;SDS011;24936;46.328;11.026;2024-03-23T14:56:05;1.33;;;0.88;;
39222;SDS011;24936;46.328;11.026;2024-03-23T14:58:31;1.90;;;1.70;;
39222;SDS011;24936;46.328;11.026;2024-03-23T15:01:03;0.80;;;0.60;;
39222;SDS011;24936;46.328;11.026;2024-03-23T15:03:29;0.60;;;0.60;;
39222;SDS011;24936;46.328;11.026;2024-03-23T15:05:55;0.73;;;0.73;;
39222;SDS011;24936;46.328;11.026;2024-03-23T15:08:22;0.70;;;0.63;;
39222;SDS011;24936;46.328;11.026;2024-03-23T15:10:48;1.00;;;0.73;;
39222;SDS011;24936;46.328;11.026;2024-03-23T15:13:13;1.83;;;1.38;;
39222;SDS011;24936;46.328;11.026;2024-03-23T15:15:42;2.15;;;1.90;;
39222;SDS011;24936;46.328;11.026;2024-03-23T15:20:39;2.95;;;2.47;;
39222;SDS011;24936;46.328;11.026;2024-03-23T15:23:05;1.50;;;1.38;;
39222;SDS011;24936;46.328;11.026;2024-03-23T15:25:31;1.40;;;1.30;;
39222;SDS011;24936;46.328;11.026;2024-03-23T15:27:57;1.40;;;1.30;;
39222;SDS011;24936;46.328;11.026;2024-03-23T15:30:24;0.82;;;0.82;;
39222;SDS011;24936;46.328;11.026;2024-03-23T15:32:49;2.50;;;2.40;;